sensor_id;sensor_type;location;lat;lon;timestamp;P1;durP1;ratioP1;P2;durP2;ratioP2
75787;SDS011;64406;50.024;14.492;2023-04-24T00:01:39;10.75;;;6.57;;
75787;SDS011;64406;50.024;14.492;2023-04-24T00:04:05;10.68;;;6.63;;
75787;SDS011;64406;50.024;14.492;2023-04-24T00:06:32;9.40;;;5.82;;
75787;SDS011;64406;50.024;14.492;2023-04-24T00:09:02;12.98;;;6.40;;
75787;SDS011;64406;50.024;14.492;2023-04-24T00:11:28;10.05;;;6.00;;
75787;SDS011;64406;50.024;14.492;2023-04-24T00:13:55;9.98;;;6.00;;
75787;SDS011;64406;50.024;14.492;2023-04-24T00:16:22;9.23;;;5.60;;
75787;SDS011;64406;50.024;14.492;2023-04-24T00:18:48;9.15;;;6.25;;
75787;SDS011;64406;50.024;14.492;2023-04-24T00:21:14;10.48;;;5.75;;
75787;SDS011;64406;50.024;14.492;2023-04-24T00:23:43;9.82;;;5.88;;
75787;SDS011;64406;50.024;14.492;2023-04-24T00:26:09;9.65;;;5.95;;
75787;SDS011;64406;50.024;14.492;2023-04-24T00:28:35;10.52;;;5.97;;
75787;SDS011;64406;50.024;14.492;2023-04-24T00:31:01;7.88;;;5.53;;
75787;SDS011;64406;50.024;14.492;2023-04-24T00:33:27;9.18;;;5.57;;
75787;SDS011;64406;50.024;14.492;2023-04-24T00:35:52;9.20;;;5.50;;
75787;SDS011;64406;50.024;14.492;2023-04-24T00:38:18;9.27;;;5.30;;
75787;SDS011;64406;50.024;14.492;2023-04-24T00:40:43;8.45;;;5.13;;
75787;SDS011;64406;50.024;14.492;2023-04-24T00:43:10;7.18;;;4.38;;
75787;SDS011;64406;50.024;14.492;2023-04-24T00:45:37;10.15;;;4.57;;
75787;SDS011;64406;50.024;14.492;2023-04-24T00:48:02;8.82;;;4.35;;
75787;SDS011;64406;50.024;14.492;2023-04-24T00:50:29;7.20;;;4.50;;
75787;SDS011;64406;50.024;14.492;2023-04-24T00:52:55;5.90;;;4.00;;
75787;SDS011;64406;50.024;14.492;2023-04-24T00:55:21;5.32;;;3.97;;
75787;SDS011;64406;50.024;14.492;2023-04-24T00:57:47;5.75;;;3.85;;
75787;SDS011;64406;50.024;14.492;2023-04-24T01:00:14;4.75;;;3.38;;
75787;SDS011;64406;50.024;14.492;2023-04-24T01:02:43;6.43;;;3.42;;
75787;SDS011;64406;50.024;14.492;2023-04-24T01:05:10;7.43;;;2.90;;
75787;SDS011;64406;50.024;14.492;2023-04-24T01:07:40;4.10;;;2.25;;
75787;SDS011;64406;50.024;14.492;2023-04-24T01:10:10;2.30;;;2.00;;
75787;SDS011;64406;50.024;14.492;2023-04-24T01:12:38;3.78;;;1.92;;
75787;SDS011;64406;50.024;14.492;2023-04-24T01:15:04;5.47;;;1.70;;
75787;SDS011;64406;50.024;14.492;2023-04-24T01:17:31;2.90;;;1.40;;
75787;SDS011;64406;50.024;14.492;2023-04-24T01:19:58;2.92;;;1.30;;
75787;SDS011;64406;50.024;14.492;2023-04-24T01:22:25;3.33;;;1.67;;
75787;SDS011;64406;50.024;14.492;2023-04-24T01:24:51;4.05;;;1.35;;
75787;SDS011;64406;50.024;14.492;2023-04-24T01:27:17;2.83;;;0.90;;
75787;SDS011;64406;50.024;14.492;2023-04-24T01:29:43;2.53;;;1.48;;
75787;SDS011;64406;50.024;14.492;2023-04-24T01:32:09;3.97;;;1.15;;
75787;SDS011;64406;50.024;14.492;2023-04-24T01:34:34;3.25;;;1.10;;
75787;SDS011;64406;50.024;14.492;2023-04-24T01:37:00;1.67;;;1.10;;
75787;SDS011;64406;50.024;14.492;2023-04-24T01:39:26;2.85;;;1.10;;
75787;SDS011;64406;50.024;14.492;2023-04-24T01:41:54;2.42;;;1.50;;
75787;SDS011;64406;50.024;14.492;2023-04-24T01:44:20;1.30;;;1.02;;
75787;SDS011;64406;50.024;14.492;2023-04-24T01:46:46;1.83;;;1.20;;
75787;SDS011;64406;50.024;14.492;2023-04-24T01:49:12;1.42;;;1.13;;
75787;SDS011;64406;50.024;14.492;2023-04-24T01:51:37;1.92;;;1.17;;
75787;SDS011;64406;50.024;14.492;2023-04-24T01:54:03;1.67;;;1.00;;
75787;SDS011;64406;50.024;14.492;2023-04-24T01:56:29;2.55;;;1.00;;
75787;SDS011;64406;50.024;14.492;2023-04-24T01:58:55;1.50;;;0.73;;
75787;SDS011;64406;50.024;14.492;2023-04-24T02:01:23;1.15;;;0.90;;
75787;SDS011;64406;50.024;14.492;2023-04-24T02:03:49;1.55;;;1.00;;
75787;SDS011;64406;50.024;14.492;2023-04-24T02:06:15;2.00;;;1.25;;
75787;SDS011;64406;50.024;14.492;2023-04-24T02:08:41;1.88;;;1.27;;
75787;SDS011;64406;50.024;14.492;2023-04-24T02:11:08;1.42;;;1.30;;
75787;SDS011;64406;50.024;14.492;2023-04-24T02:13:34;1.20;;;0.90;;
75787;SDS011;64406;50.024;14.492;2023-04-24T02:16:00;2.13;;;1.15;;
75787;SDS011;64406;50.024;14.492;2023-04-24T02:18:26;1.23;;;0.80;;
75787;SDS011;64406;50.024;14.492;2023-04-24T02:20:52;1.50;;;1.00;;
75787;SDS011;64406;50.024;14.492;2023-04-24T02:23:17;1.33;;;0.90;;
75787;SDS011;64406;50.024;14.492;2023-04-24T02:25:43;2.15;;;1.00;;
75787;SDS011;64406;50.024;14.492;2023-04-24T02:28:09;2.05;;;1.02;;
75787;SDS011;64406;50.024;14.492;2023-04-24T02:30:34;1.92;;;1.33;;
75787;SDS011;64406;50.024;14.492;2023-04-24T02:33:00;4.40;;;1.10;;
75787;SDS011;64406;50.024;14.492;2023-04-24T02:35:26;1.10;;;1.00;;
75787;SDS011;64406;50.024;14.492;2023-04-24T02:37:51;1.15;;;1.02;;
75787;SDS011;64406;50.024;14.492;2023-04-24T02:40:17;2.28;;;1.27;;
75787;SDS011;64406;50.024;14.492;2023-04-24T02:42:43;1.45;;;1.13;;
75787;SDS011;64406;50.024;14.492;2023-04-24T02:45:08;1.65;;;1.08;;
75787;SDS011;64406;50.024;14.492;2023-04-24T02:47:34;1.77;;;1.08;;
75787;SDS011;64406;50.024;14.492;2023-04-24T02:50:00;1.65;;;1.17;;
75787;SDS011;64406;50.024;14.492;2023-04-24T02:52:27;1.50;;;1.40;;
75787;SDS011;64406;50.024;14.492;2023-04-24T02:54:53;1.35;;;1.02;;
75787;SDS011;64406;50.024;14.492;2023-04-24T02:57:19;1.67;;;1.13;;
75787;SDS011;64406;50.024;14.492;2023-04-24T02:59:45;1.88;;;1.23;;
75787;SDS011;64406;50.024;14.492;2023-04-24T03:02:10;2.50;;;1.00;;
75787;SDS011;64406;50.024;14.492;2023-04-24T03:04:36;2.10;;;1.45;;
75787;SDS011;64406;50.024;14.492;2023-04-24T03:07:01;1.15;;;1.00;;
75787;SDS011;64406;50.024;14.492;2023-04-24T03:09:27;3.22;;;1.30;;
75787;SDS011;64406;50.024;14.492;2023-04-24T03:11:53;1.13;;;0.98;;
75787;SDS011;64406;50.024;14.492;2023-04-24T03:14:19;2.83;;;1.45;;
75787;SDS011;64406;50.024;14.492;2023-04-24T03:16:44;1.65;;;1.13;;
75787;SDS011;64406;50.024;14.492;2023-04-24T03:19:10;1.60;;;1.30;;
75787;SDS011;64406;50.024;14.492;2023-04-24T03:21:35;2.75;;;1.40;;
75787;SDS011;64406;50.024;14.492;2023-04-24T03:24:06;2.20;;;1.10;;
75787;SDS011;64406;50.024;14.492;2023-04-24T03:26:32;1.90;;;1.30;;
75787;SDS011;64406;50.024;14.492;2023-04-24T03:28:58;2.40;;;1.30;;
75787;SDS011;64406;50.024;14.492;2023-04-24T03:31:23;1.65;;;1.35;;
75787;SDS011;64406;50.024;14.492;2023-04-24T03:33:49;3.38;;;1.40;;
75787;SDS011;64406;50.024;14.492;2023-04-24T03:36:16;2.92;;;1.30;;
75787;SDS011;64406;50.024;14.492;2023-04-24T03:38:41;3.45;;;1.33;;
75787;SDS011;64406;50.024;14.492;2023-04-24T03:41:07;1.33;;;1.10;;
75787;SDS011;64406;50.024;14.492;2023-04-24T03:43:33;2.28;;;1.52;;
75787;SDS011;64406;50.024;14.492;2023-04-24T03:45:59;1.50;;;1.40;;
75787;SDS011;64406;50.024;14.492;2023-04-24T03:48:25;2.25;;;1.40;;
75787;SDS011;64406;50.024;14.492;2023-04-24T03:50:51;5.00;;;1.50;;
75787;SDS011;64406;50.024;14.492;2023-04-24T03:53:16;2.88;;;1.17;;
75787;SDS011;64406;50.024;14.492;2023-04-24T03:55:42;2.25;;;2.05;;
75787;SDS011;64406;50.024;14.492;2023-04-24T03:58:08;2.10;;;1.33;;
75787;SDS011;64406;50.024;14.492;2023-04-24T04:00:33;2.03;;;1.48;;
75787;SDS011;64406;50.024;14.492;2023-04-24T04:03:00;3.30;;;1.65;;
75787;SDS011;64406;50.024;14.492;2023-04-24T04:05:26;1.73;;;1.55;;
75787;SDS011;64406;50.024;14.492;2023-04-24T04:07:51;2.30;;;1.52;;
75787;SDS011;64406;50.024;14.492;2023-04-24T04:10:17;3.05;;;1.35;;
75787;SDS011;64406;50.024;14.492;2023-04-24T04:12:43;3.67;;;1.67;;
75787;SDS011;64406;50.024;14.492;2023-04-24T04:15:08;2.38;;;1.27;;
75787;SDS011;64406;50.024;14.492;2023-04-24T04:17:34;2.10;;;1.45;;
75787;SDS011;64406;50.024;14.492;2023-04-24T04:20:00;2.00;;;1.60;;
75787;SDS011;64406;50.024;14.492;2023-04-24T04:22:26;3.63;;;1.17;;
75787;SDS011;64406;50.024;14.492;2023-04-24T04:24:52;1.75;;;1.40;;
75787;SDS011;64406;50.024;14.492;2023-04-24T04:27:17;1.65;;;1.48;;
75787;SDS011;64406;50.024;14.492;2023-04-24T04:29:44;3.90;;;1.75;;
75787;SDS011;64406;50.024;14.492;2023-04-24T04:32:10;4.20;;;1.55;;
75787;SDS011;64406;50.024;14.492;2023-04-24T04:34:35;2.25;;;1.58;;
75787;SDS011;64406;50.024;14.492;2023-04-24T04:37:03;5.78;;;1.70;;
75787;SDS011;64406;50.024;14.492;2023-04-24T04:39:28;2.08;;;1.60;;
75787;SDS011;64406;50.024;14.492;2023-04-24T04:41:55;1.38;;;1.27;;
75787;SDS011;64406;50.024;14.492;2023-04-24T04:44:21;3.17;;;1.65;;
75787;SDS011;64406;50.024;14.492;2023-04-24T04:46:47;2.25;;;1.60;;
75787;SDS011;64406;50.024;14.492;2023-04-24T04:49:13;3.65;;;1.65;;
75787;SDS011;64406;50.024;14.492;2023-04-24T04:51:42;2.10;;;1.90;;
75787;SDS011;64406;50.024;14.492;2023-04-24T04:54:07;1.70;;;1.60;;
75787;SDS011;64406;50.024;14.492;2023-04-24T04:56:33;2.17;;;1.52;;
75787;SDS011;64406;50.024;14.492;2023-04-24T04:58:58;2.28;;;1.38;;
75787;SDS011;64406;50.024;14.492;2023-04-24T05:01:24;3.28;;;1.70;;
75787;SDS011;64406;50.024;14.492;2023-04-24T05:03:52;7.72;;;2.13;;
75787;SDS011;64406;50.024;14.492;2023-04-24T05:06:18;2.03;;;1.70;;
75787;SDS011;64406;50.024;14.492;2023-04-24T05:08:44;7.72;;;2.25;;
75787;SDS011;64406;50.024;14.492;2023-04-24T05:11:09;3.92;;;2.17;;
75787;SDS011;64406;50.024;14.492;2023-04-24T05:13:35;3.53;;;1.80;;
75787;SDS011;64406;50.024;14.492;2023-04-24T05:16:01;3.65;;;1.98;;
75787;SDS011;64406;50.024;14.492;2023-04-24T05:18:26;3.55;;;1.92;;
75787;SDS011;64406;50.024;14.492;2023-04-24T05:20:52;4.47;;;2.00;;
75787;SDS011;64406;50.024;14.492;2023-04-24T05:23:18;3.17;;;1.50;;
75787;SDS011;64406;50.024;14.492;2023-04-24T05:25:43;1.85;;;1.40;;
75787;SDS011;64406;50.024;14.492;2023-04-24T05:28:09;2.15;;;1.60;;
75787;SDS011;64406;50.024;14.492;2023-04-24T05:30:35;3.03;;;2.00;;
75787;SDS011;64406;50.024;14.492;2023-04-24T05:33:01;1.58;;;1.40;;
75787;SDS011;64406;50.024;14.492;2023-04-24T05:35:28;5.20;;;1.83;;
75787;SDS011;64406;50.024;14.492;2023-04-24T05:37:54;3.28;;;1.65;;
75787;SDS011;64406;50.024;14.492;2023-04-24T05:40:20;5.70;;;2.00;;
75787;SDS011;64406;50.024;14.492;2023-04-24T05:42:45;4.70;;;2.00;;
75787;SDS011;64406;50.024;14.492;2023-04-24T05:45:11;3.50;;;1.80;;
75787;SDS011;64406;50.024;14.492;2023-04-24T05:47:41;2.38;;;1.75;;
75787;SDS011;64406;50.024;14.492;2023-04-24T05:50:09;4.85;;;2.10;;
75787;SDS011;64406;50.024;14.492;2023-04-24T05:52:38;2.28;;;2.00;;
75787;SDS011;64406;50.024;14.492;2023-04-24T05:55:04;2.35;;;2.00;;
75787;SDS011;64406;50.024;14.492;2023-04-24T05:57:30;3.20;;;2.17;;
75787;SDS011;64406;50.024;14.492;2023-04-24T05:59:56;2.25;;;1.65;;
75787;SDS011;64406;50.024;14.492;2023-04-24T06:02:22;2.13;;;1.70;;
75787;SDS011;64406;50.024;14.492;2023-04-24T06:04:49;4.32;;;2.08;;
75787;SDS011;64406;50.024;14.492;2023-04-24T06:07:15;6.32;;;2.20;;
75787;SDS011;64406;50.024;14.492;2023-04-24T06:09:40;3.55;;;1.98;;
75787;SDS011;64406;50.024;14.492;2023-04-24T06:12:06;13.70;;;3.97;;
75787;SDS011;64406;50.024;14.492;2023-04-24T06:14:35;4.00;;;2.40;;
75787;SDS011;64406;50.024;14.492;2023-04-24T06:17:01;5.47;;;2.05;;
75787;SDS011;64406;50.024;14.492;2023-04-24T06:19:27;3.45;;;2.10;;
75787;SDS011;64406;50.024;14.492;2023-04-24T06:21:52;4.63;;;2.22;;
75787;SDS011;64406;50.024;14.492;2023-04-24T06:24:19;2.05;;;1.85;;
75787;SDS011;64406;50.024;14.492;2023-04-24T06:26:45;2.63;;;1.92;;
75787;SDS011;64406;50.024;14.492;2023-04-24T06:29:11;3.28;;;1.95;;
75787;SDS011;64406;50.024;14.492;2023-04-24T06:31:36;2.40;;;2.10;;
75787;SDS011;64406;50.024;14.492;2023-04-24T06:34:02;3.72;;;2.30;;
75787;SDS011;64406;50.024;14.492;2023-04-24T06:36:28;5.28;;;2.67;;
75787;SDS011;64406;50.024;14.492;2023-04-24T06:38:56;3.95;;;2.58;;
75787;SDS011;64406;50.024;14.492;2023-04-24T06:41:22;3.13;;;2.38;;
75787;SDS011;64406;50.024;14.492;2023-04-24T06:43:48;3.33;;;2.45;;
75787;SDS011;64406;50.024;14.492;2023-04-24T06:46:13;4.55;;;2.45;;
75787;SDS011;64406;50.024;14.492;2023-04-24T06:48:39;3.80;;;2.75;;
75787;SDS011;64406;50.024;14.492;2023-04-24T06:51:07;3.97;;;2.65;;
75787;SDS011;64406;50.024;14.492;2023-04-24T06:53:36;4.32;;;3.08;;
75787;SDS011;64406;50.024;14.492;2023-04-24T06:56:02;5.65;;;2.92;;
75787;SDS011;64406;50.024;14.492;2023-04-24T06:58:28;5.00;;;2.83;;
75787;SDS011;64406;50.024;14.492;2023-04-24T07:00:55;3.20;;;2.78;;
75787;SDS011;64406;50.024;14.492;2023-04-24T07:03:21;3.97;;;2.72;;
75787;SDS011;64406;50.024;14.492;2023-04-24T07:05:47;5.22;;;3.13;;
75787;SDS011;64406;50.024;14.492;2023-04-24T07:08:14;4.53;;;3.15;;
75787;SDS011;64406;50.024;14.492;2023-04-24T07:10:42;3.55;;;2.67;;
75787;SDS011;64406;50.024;14.492;2023-04-24T07:13:08;5.65;;;2.83;;
75787;SDS011;64406;50.024;14.492;2023-04-24T07:15:33;4.65;;;2.92;;
75787;SDS011;64406;50.024;14.492;2023-04-24T07:17:59;3.08;;;2.75;;
75787;SDS011;64406;50.024;14.492;2023-04-24T07:20:25;5.00;;;3.17;;
75787;SDS011;64406;50.024;14.492;2023-04-24T07:22:51;4.32;;;3.45;;
75787;SDS011;64406;50.024;14.492;2023-04-24T07:25:19;4.43;;;3.40;;
75787;SDS011;64406;50.024;14.492;2023-04-24T07:27:44;5.25;;;4.32;;
75787;SDS011;64406;50.024;14.492;2023-04-24T07:30:10;4.30;;;3.10;;
75787;SDS011;64406;50.024;14.492;2023-04-24T07:32:36;3.80;;;3.30;;
75787;SDS011;64406;50.024;14.492;2023-04-24T07:35:02;3.97;;;3.55;;
75787;SDS011;64406;50.024;14.492;2023-04-24T07:37:28;5.28;;;3.40;;
75787;SDS011;64406;50.024;14.492;2023-04-24T07:39:54;4.55;;;3.42;;
75787;SDS011;64406;50.024;14.492;2023-04-24T07:42:23;5.57;;;3.60;;
75787;SDS011;64406;50.024;14.492;2023-04-24T07:44:55;4.35;;;3.72;;
75787;SDS011;64406;50.024;14.492;2023-04-24T07:47:21;3.95;;;3.45;;
75787;SDS011;64406;50.024;14.492;2023-04-24T07:49:46;4.65;;;3.15;;
75787;SDS011;64406;50.024;14.492;2023-04-24T07:52:12;7.07;;;3.78;;
75787;SDS011;64406;50.024;14.492;2023-04-24T07:54:39;6.30;;;3.53;;
75787;SDS011;64406;50.024;14.492;2023-04-24T07:57:09;6.40;;;3.55;;
75787;SDS011;64406;50.024;14.492;2023-04-24T07:59:38;8.32;;;3.83;;
75787;SDS011;64406;50.024;14.492;2023-04-24T08:02:09;7.20;;;3.88;;
75787;SDS011;64406;50.024;14.492;2023-04-24T08:04:34;6.45;;;3.90;;
75787;SDS011;64406;50.024;14.492;2023-04-24T08:07:00;5.07;;;3.97;;
75787;SDS011;64406;50.024;14.492;2023-04-24T08:09:27;6.35;;;4.40;;
75787;SDS011;64406;50.024;14.492;2023-04-24T08:11:56;6.18;;;4.53;;
75787;SDS011;64406;50.024;14.492;2023-04-24T08:14:22;6.30;;;4.63;;
75787;SDS011;64406;50.024;14.492;2023-04-24T08:16:48;7.20;;;4.22;;
75787;SDS011;64406;50.024;14.492;2023-04-24T08:19:13;4.70;;;3.90;;
75787;SDS011;64406;50.024;14.492;2023-04-24T08:21:39;6.22;;;4.38;;
75787;SDS011;64406;50.024;14.492;2023-04-24T08:24:05;7.10;;;4.30;;
75787;SDS011;64406;50.024;14.492;2023-04-24T08:26:33;7.50;;;4.65;;
75787;SDS011;64406;50.024;14.492;2023-04-24T08:28:58;5.40;;;4.10;;
75787;SDS011;64406;50.024;14.492;2023-04-24T08:31:24;6.00;;;4.00;;
75787;SDS011;64406;50.024;14.492;2023-04-24T08:33:51;5.38;;;3.60;;
75787;SDS011;64406;50.024;14.492;2023-04-24T08:36:17;6.75;;;4.30;;
75787;SDS011;64406;50.024;14.492;2023-04-24T08:38:42;6.38;;;3.67;;
75787;SDS011;64406;50.024;14.492;2023-04-24T08:41:08;6.47;;;4.05;;
75787;SDS011;64406;50.024;14.492;2023-04-24T08:43:35;4.93;;;2.90;;
75787;SDS011;64406;50.024;14.492;2023-04-24T08:46:03;3.25;;;2.35;;
75787;SDS011;64406;50.024;14.492;2023-04-24T08:48:29;3.45;;;2.50;;
75787;SDS011;64406;50.024;14.492;2023-04-24T08:50:57;3.90;;;2.72;;
75787;SDS011;64406;50.024;14.492;2023-04-24T08:53:24;3.42;;;2.80;;
75787;SDS011;64406;50.024;14.492;2023-04-24T08:55:51;3.13;;;2.40;;
75787;SDS011;64406;50.024;14.492;2023-04-24T08:58:20;4.22;;;2.90;;
75787;SDS011;64406;50.024;14.492;2023-04-24T09:00:47;4.05;;;3.20;;
75787;SDS011;64406;50.024;14.492;2023-04-24T09:03:16;6.03;;;3.05;;
75787;SDS011;64406;50.024;14.492;2023-04-24T09:05:43;4.70;;;3.00;;
75787;SDS011;64406;50.024;14.492;2023-04-24T09:08:18;3.97;;;2.80;;
75787;SDS011;64406;50.024;14.492;2023-04-24T09:10:45;2.57;;;2.37;;
75787;SDS011;64406;50.024;14.492;2023-04-24T09:13:11;8.23;;;3.10;;
75787;SDS011;64406;50.024;14.492;2023-04-24T09:15:37;4.38;;;3.35;;
75787;SDS011;64406;50.024;14.492;2023-04-24T09:18:04;7.40;;;2.72;;
75787;SDS011;64406;50.024;14.492;2023-04-24T09:20:30;3.90;;;2.67;;
75787;SDS011;64406;50.024;14.492;2023-04-24T09:22:57;5.05;;;3.13;;
75787;SDS011;64406;50.024;14.492;2023-04-24T09:25:33;3.45;;;2.80;;
75787;SDS011;64406;50.024;14.492;2023-04-24T09:28:01;5.78;;;3.00;;
75787;SDS011;64406;50.024;14.492;2023-04-24T09:30:28;4.93;;;2.60;;
75787;SDS011;64406;50.024;14.492;2023-04-24T09:33:13;2.28;;;2.08;;
75787;SDS011;64406;50.024;14.492;2023-04-24T09:35:41;3.40;;;2.00;;
75787;SDS011;64406;50.024;14.492;2023-04-24T09:38:07;3.22;;;2.45;;
75787;SDS011;64406;50.024;14.492;2023-04-24T09:40:34;3.47;;;2.10;;
75787;SDS011;64406;50.024;14.492;2023-04-24T09:43:00;7.43;;;2.78;;
75787;SDS011;64406;50.024;14.492;2023-04-24T09:45:28;2.80;;;2.40;;
75787;SDS011;64406;50.024;14.492;2023-04-24T09:48:00;6.03;;;2.78;;
75787;SDS011;64406;50.024;14.492;2023-04-24T09:50:26;2.88;;;2.40;;
75787;SDS011;64406;50.024;14.492;2023-04-24T09:52:56;4.55;;;2.58;;
75787;SDS011;64406;50.024;14.492;2023-04-24T09:55:24;2.78;;;2.17;;
75787;SDS011;64406;50.024;14.492;2023-04-24T09:57:57;3.38;;;2.75;;
75787;SDS011;64406;50.024;14.492;2023-04-24T10:00:26;3.28;;;2.33;;
75787;SDS011;64406;50.024;14.492;2023-04-24T10:02:54;2.80;;;2.30;;
75787;SDS011;64406;50.024;14.492;2023-04-24T10:05:28;3.30;;;2.35;;
75787;SDS011;64406;50.024;14.492;2023-04-24T10:08:08;4.00;;;2.78;;
75787;SDS011;64406;50.024;14.492;2023-04-24T10:10:38;2.97;;;2.17;;
75787;SDS011;64406;50.024;14.492;2023-04-24T10:13:05;3.00;;;2.13;;
75787;SDS011;64406;50.024;14.492;2023-04-24T10:15:33;3.85;;;2.10;;
75787;SDS011;64406;50.024;14.492;2023-04-24T10:17:59;2.90;;;1.98;;
75787;SDS011;64406;50.024;14.492;2023-04-24T10:20:26;3.05;;;1.70;;
75787;SDS011;64406;50.024;14.492;2023-04-24T10:22:58;3.97;;;2.33;;
75787;SDS011;64406;50.024;14.492;2023-04-24T10:25:26;2.72;;;2.03;;
75787;SDS011;64406;50.024;14.492;2023-04-24T10:27:53;2.30;;;1.60;;
75787;SDS011;64406;50.024;14.492;2023-04-24T10:30:23;2.42;;;1.75;;
75787;SDS011;64406;50.024;14.492;2023-04-24T10:32:49;6.70;;;2.30;;
75787;SDS011;64406;50.024;14.492;2023-04-24T10:35:15;2.28;;;1.60;;
75787;SDS011;64406;50.024;14.492;2023-04-24T10:37:44;3.63;;;1.67;;
75787;SDS011;64406;50.024;14.492;2023-04-24T10:40:25;2.72;;;1.70;;
75787;SDS011;64406;50.024;14.492;2023-04-24T10:42:53;1.90;;;1.70;;
75787;SDS011;64406;50.024;14.492;2023-04-24T10:45:20;2.38;;;1.85;;
75787;SDS011;64406;50.024;14.492;2023-04-24T10:47:51;3.38;;;1.58;;
75787;SDS011;64406;50.024;14.492;2023-04-24T10:50:51;1.92;;;1.50;;
75787;SDS011;64406;50.024;14.492;2023-04-24T10:53:19;1.88;;;1.40;;
75787;SDS011;64406;50.024;14.492;2023-04-24T10:55:52;1.98;;;1.55;;
75787;SDS011;64406;50.024;14.492;2023-04-24T10:58:36;3.15;;;1.40;;
75787;SDS011;64406;50.024;14.492;2023-04-24T11:01:05;1.73;;;1.30;;
75787;SDS011;64406;50.024;14.492;2023-04-24T11:03:34;3.40;;;1.00;;
75787;SDS011;64406;50.024;14.492;2023-04-24T11:06:02;1.52;;;1.23;;
75787;SDS011;64406;50.024;14.492;2023-04-24T11:08:38;2.17;;;0.93;;
75787;SDS011;64406;50.024;14.492;2023-04-24T11:11:12;2.97;;;1.20;;
75787;SDS011;64406;50.024;14.492;2023-04-24T11:18:52;1.90;;;0.95;;
75787;SDS011;64406;50.024;14.492;2023-04-24T11:21:25;1.17;;;0.90;;
75787;SDS011;64406;50.024;14.492;2023-04-24T11:23:51;0.60;;;0.60;;
75787;SDS011;64406;50.024;14.492;2023-04-24T11:26:18;2.75;;;0.90;;
75787;SDS011;64406;50.024;14.492;2023-04-24T11:28:46;2.15;;;0.90;;
75787;SDS011;64406;50.024;14.492;2023-04-24T11:34:06;0.93;;;0.75;;
75787;SDS011;64406;50.024;14.492;2023-04-24T11:36:47;1.27;;;0.80;;
75787;SDS011;64406;50.024;14.492;2023-04-24T11:39:13;3.85;;;0.95;;
75787;SDS011;64406;50.024;14.492;2023-04-24T11:41:40;2.90;;;1.10;;
75787;SDS011;64406;50.024;14.492;2023-04-24T11:44:08;2.00;;;1.00;;
75787;SDS011;64406;50.024;14.492;2023-04-24T11:46:39;2.03;;;0.90;;
75787;SDS011;64406;50.024;14.492;2023-04-24T11:49:05;2.72;;;0.80;;
75787;SDS011;64406;50.024;14.492;2023-04-24T11:51:31;2.90;;;1.20;;
75787;SDS011;64406;50.024;14.492;2023-04-24T11:53:56;2.08;;;0.95;;
75787;SDS011;64406;50.024;14.492;2023-04-24T11:56:23;1.38;;;0.80;;
75787;SDS011;64406;50.024;14.492;2023-04-24T11:58:51;3.00;;;0.80;;
75787;SDS011;64406;50.024;14.492;2023-04-24T12:01:19;2.03;;;1.20;;
75787;SDS011;64406;50.024;14.492;2023-04-24T12:03:49;2.67;;;0.80;;
75787;SDS011;64406;50.024;14.492;2023-04-24T12:06:16;1.00;;;0.90;;
75787;SDS011;64406;50.024;14.492;2023-04-24T12:08:45;2.58;;;1.00;;
75787;SDS011;64406;50.024;14.492;2023-04-24T12:11:14;2.45;;;0.82;;
75787;SDS011;64406;50.024;14.492;2023-04-24T12:13:40;1.00;;;0.70;;
75787;SDS011;64406;50.024;14.492;2023-04-24T12:16:06;1.20;;;0.63;;
75787;SDS011;64406;50.024;14.492;2023-04-24T12:18:32;0.98;;;0.70;;
75787;SDS011;64406;50.024;14.492;2023-04-24T12:26:08;4.47;;;1.45;;
75787;SDS011;64406;50.024;14.492;2023-04-24T12:28:35;3.42;;;1.00;;
75787;SDS011;64406;50.024;14.492;2023-04-24T12:31:01;1.52;;;0.90;;
75787;SDS011;64406;50.024;14.492;2023-04-24T12:33:27;0.63;;;0.63;;
75787;SDS011;64406;50.024;14.492;2023-04-24T12:35:57;3.20;;;0.47;;
75787;SDS011;64406;50.024;14.492;2023-04-24T12:38:25;1.48;;;0.68;;
75787;SDS011;64406;50.024;14.492;2023-04-24T12:43:53;1.52;;;1.30;;
75787;SDS011;64406;50.024;14.492;2023-04-24T12:46:20;2.30;;;1.20;;
75787;SDS011;64406;50.024;14.492;2023-04-24T12:48:46;4.25;;;1.30;;
75787;SDS011;64406;50.024;14.492;2023-04-24T12:51:12;5.13;;;1.30;;
75787;SDS011;64406;50.024;14.492;2023-04-24T12:53:37;2.50;;;1.35;;
75787;SDS011;64406;50.024;14.492;2023-04-24T12:56:03;1.95;;;1.42;;
75787;SDS011;64406;50.024;14.492;2023-04-24T12:58:29;2.22;;;0.95;;
75787;SDS011;64406;50.024;14.492;2023-04-24T13:00:55;2.10;;;0.68;;
75787;SDS011;64406;50.024;14.492;2023-04-24T13:03:20;1.65;;;0.70;;
75787;SDS011;64406;50.024;14.492;2023-04-24T13:05:49;2.13;;;0.73;;
75787;SDS011;64406;50.024;14.492;2023-04-24T13:08:14;1.67;;;0.98;;
75787;SDS011;64406;50.024;14.492;2023-04-24T13:10:40;1.05;;;0.80;;
75787;SDS011;64406;50.024;14.492;2023-04-24T13:13:06;1.05;;;0.70;;
75787;SDS011;64406;50.024;14.492;2023-04-24T13:15:32;2.15;;;0.95;;
75787;SDS011;64406;50.024;14.492;2023-04-24T13:17:58;0.95;;;0.70;;
75787;SDS011;64406;50.024;14.492;2023-04-24T13:20:23;1.10;;;0.93;;
75787;SDS011;64406;50.024;14.492;2023-04-24T13:22:49;1.90;;;0.85;;
75787;SDS011;64406;50.024;14.492;2023-04-24T13:25:15;2.53;;;1.20;;
75787;SDS011;64406;50.024;14.492;2023-04-24T13:27:42;2.40;;;1.00;;
75787;SDS011;64406;50.024;14.492;2023-04-24T13:30:07;2.33;;;1.20;;
75787;SDS011;64406;50.024;14.492;2023-04-24T13:32:34;2.33;;;1.08;;
75787;SDS011;64406;50.024;14.492;2023-04-24T13:35:00;2.05;;;1.60;;
75787;SDS011;64406;50.024;14.492;2023-04-24T13:37:26;5.57;;;1.38;;
75787;SDS011;64406;50.024;14.492;2023-04-24T13:39:52;1.33;;;1.10;;
75787;SDS011;64406;50.024;14.492;2023-04-24T13:42:17;2.67;;;1.33;;
75787;SDS011;64406;50.024;14.492;2023-04-24T13:44:44;1.80;;;1.20;;
75787;SDS011;64406;50.024;14.492;2023-04-24T13:47:09;2.00;;;1.42;;
75787;SDS011;64406;50.024;14.492;2023-04-24T13:49:36;1.85;;;1.33;;
75787;SDS011;64406;50.024;14.492;2023-04-24T13:52:01;2.88;;;1.27;;
75787;SDS011;64406;50.024;14.492;2023-04-24T13:54:28;2.55;;;1.65;;
75787;SDS011;64406;50.024;14.492;2023-04-24T13:56:55;2.40;;;1.52;;
75787;SDS011;64406;50.024;14.492;2023-04-24T13:59:23;2.53;;;1.40;;
75787;SDS011;64406;50.024;14.492;2023-04-24T14:01:48;4.35;;;1.67;;
75787;SDS011;64406;50.024;14.492;2023-04-24T14:04:14;1.75;;;1.25;;
75787;SDS011;64406;50.024;14.492;2023-04-24T14:06:40;1.88;;;1.10;;
75787;SDS011;64406;50.024;14.492;2023-04-24T14:09:06;1.55;;;1.00;;
75787;SDS011;64406;50.024;14.492;2023-04-24T14:11:31;1.20;;;0.75;;
75787;SDS011;64406;50.024;14.492;2023-04-24T14:13:58;0.75;;;0.70;;
75787;SDS011;64406;50.024;14.492;2023-04-24T14:16:24;1.05;;;0.80;;
75787;SDS011;64406;50.024;14.492;2023-04-24T14:18:50;2.15;;;0.70;;
75787;SDS011;64406;50.024;14.492;2023-04-24T14:21:16;1.08;;;0.80;;
75787;SDS011;64406;50.024;14.492;2023-04-24T14:23:41;2.38;;;0.77;;
75787;SDS011;64406;50.024;14.492;2023-04-24T14:26:07;1.70;;;0.93;;
75787;SDS011;64406;50.024;14.492;2023-04-24T14:28:33;1.83;;;0.90;;
75787;SDS011;64406;50.024;14.492;2023-04-24T14:30:59;0.65;;;0.57;;
75787;SDS011;64406;50.024;14.492;2023-04-24T14:33:24;2.13;;;0.75;;
75787;SDS011;64406;50.024;14.492;2023-04-24T14:35:50;3.03;;;0.80;;
75787;SDS011;64406;50.024;14.492;2023-04-24T14:38:16;0.63;;;0.63;;
75787;SDS011;64406;50.024;14.492;2023-04-24T14:40:41;1.23;;;0.80;;
75787;SDS011;64406;50.024;14.492;2023-04-24T14:43:07;0.70;;;0.55;;
75787;SDS011;64406;50.024;14.492;2023-04-24T14:45:33;1.52;;;0.73;;
75787;SDS011;64406;50.024;14.492;2023-04-24T14:47:59;1.10;;;0.82;;